sensor_id;sensor_type;location;lat;lon;timestamp;P1;durP1;ratioP1;P2;durP2;ratioP2
24547;SDS011;12713;51.624;4.924;2024-03-08T00:02:10;54.63;;;29.42;;
24547;SDS011;12713;51.624;4.924;2024-03-08T00:04:36;48.08;;;27.15;;
24547;SDS011;12713;51.624;4.924;2024-03-08T00:07:02;47.42;;;28.92;;
24547;SDS011;12713;51.624;4.924;2024-03-08T00:09:28;54.38;;;29.33;;
24547;SDS011;12713;51.624;4.924;2024-03-08T00:11:55;51.35;;;29.02;;
24547;SDS011;12713;51.624;4.924;2024-03-08T00:14:21;53.70;;;29.33;;
24547;SDS011;12713;51.624;4.924;2024-03-08T00:16:47;48.63;;;28.70;;
24547;SDS011;12713;51.624;4.924;2024-03-08T00:19:13;49.10;;;28.98;;
24547;SDS011;12713;51.624;4.924;2024-03-08T00:21:39;47.45;;;27.60;;
24547;SDS011;12713;51.624;4.924;2024-03-08T00:24:07;48.35;;;27.63;;
24547;SDS011;12713;51.624;4.924;2024-03-08T00:26:33;50.00;;;28.98;;
24547;SDS011;12713;51.624;4.924;2024-03-08T00:28:59;56.78;;;29.45;;
24547;SDS011;12713;51.624;4.924;2024-03-08T00:31:25;46.45;;;27.35;;
24547;SDS011;12713;51.624;4.924;2024-03-08T00:33:54;46.75;;;28.70;;
24547;SDS011;12713;51.624;4.924;2024-03-08T00:36:20;52.08;;;28.80;;
24547;SDS011;12713;51.624;4.924;2024-03-08T00:38:46;46.10;;;28.48;;
24547;SDS011;12713;51.624;4.924;2024-03-08T00:41:12;47.30;;;27.90;;
24547;SDS011;12713;51.624;4.924;2024-03-08T00:43:38;51.17;;;29.88;;
24547;SDS011;12713;51.624;4.924;2024-03-08T00:46:04;49.05;;;29.63;;
24547;SDS011;12713;51.624;4.924;2024-03-08T00:48:30;51.15;;;28.48;;
24547;SDS011;12713;51.624;4.924;2024-03-08T00:50:57;49.55;;;29.15;;
24547;SDS011;12713;51.624;4.924;2024-03-08T00:53:23;52.53;;;28.80;;
24547;SDS011;12713;51.624;4.924;2024-03-08T00:55:49;50.72;;;28.42;;
24547;SDS011;12713;51.624;4.924;2024-03-08T00:58:15;46.83;;;28.38;;
24547;SDS011;12713;51.624;4.924;2024-03-08T01:00:41;46.33;;;27.17;;
24547;SDS011;12713;51.624;4.924;2024-03-08T01:03:07;45.05;;;27.23;;
24547;SDS011;12713;51.624;4.924;2024-03-08T01:05:33;43.95;;;27.80;;
24547;SDS011;12713;51.624;4.924;2024-03-08T01:08:00;44.90;;;26.48;;
24547;SDS011;12713;51.624;4.924;2024-03-08T01:10:28;49.42;;;27.55;;
24547;SDS011;12713;51.624;4.924;2024-03-08T01:12:54;47.53;;;29.00;;
24547;SDS011;12713;51.624;4.924;2024-03-08T01:15:21;48.15;;;29.17;;
24547;SDS011;12713;51.624;4.924;2024-03-08T01:17:48;50.25;;;28.23;;
24547;SDS011;12713;51.624;4.924;2024-03-08T01:20:14;46.63;;;27.80;;
24547;SDS011;12713;51.624;4.924;2024-03-08T01:22:40;45.28;;;28.50;;
24547;SDS011;12713;51.624;4.924;2024-03-08T01:25:06;50.17;;;28.45;;
24547;SDS011;12713;51.624;4.924;2024-03-08T01:27:33;50.65;;;28.33;;
24547;SDS011;12713;51.624;4.924;2024-03-08T01:30:00;46.03;;;27.70;;
24547;SDS011;12713;51.624;4.924;2024-03-08T01:32:26;46.63;;;27.15;;
24547;SDS011;12713;51.624;4.924;2024-03-08T01:34:52;45.72;;;27.20;;
24547;SDS011;12713;51.624;4.924;2024-03-08T01:37:18;46.67;;;28.25;;
24547;SDS011;12713;51.624;4.924;2024-03-08T01:39:44;39.58;;;26.88;;
24547;SDS011;12713;51.624;4.924;2024-03-08T01:42:11;49.10;;;28.52;;
24547;SDS011;12713;51.624;4.924;2024-03-08T01:44:40;41.85;;;27.13;;
24547;SDS011;12713;51.624;4.924;2024-03-08T01:47:06;45.13;;;28.25;;
24547;SDS011;12713;51.624;4.924;2024-03-08T01:49:32;43.53;;;27.45;;
24547;SDS011;12713;51.624;4.924;2024-03-08T01:51:58;42.90;;;27.17;;
24547;SDS011;12713;51.624;4.924;2024-03-08T01:54:24;42.83;;;28.02;;
24547;SDS011;12713;51.624;4.924;2024-03-08T01:56:52;43.72;;;27.35;;
24547;SDS011;12713;51.624;4.924;2024-03-08T01:59:18;45.90;;;26.35;;
24547;SDS011;12713;51.624;4.924;2024-03-08T02:01:44;46.38;;;27.25;;
24547;SDS011;12713;51.624;4.924;2024-03-08T02:04:10;47.33;;;27.95;;
24547;SDS011;12713;51.624;4.924;2024-03-08T02:06:36;46.63;;;26.60;;
24547;SDS011;12713;51.624;4.924;2024-03-08T02:09:03;42.30;;;26.77;;
24547;SDS011;12713;51.624;4.924;2024-03-08T02:11:36;43.05;;;26.75;;
24547;SDS011;12713;51.624;4.924;2024-03-08T02:14:02;43.70;;;27.63;;
24547;SDS011;12713;51.624;4.924;2024-03-08T02:16:31;42.35;;;27.40;;
24547;SDS011;12713;51.624;4.924;2024-03-08T02:18:58;41.35;;;27.30;;
24547;SDS011;12713;51.624;4.924;2024-03-08T02:21:24;40.00;;;26.08;;
24547;SDS011;12713;51.624;4.924;2024-03-08T02:23:50;44.60;;;26.80;;
24547;SDS011;12713;51.624;4.924;2024-03-08T02:26:19;44.75;;;26.30;;
24547;SDS011;12713;51.624;4.924;2024-03-08T02:28:46;37.38;;;25.67;;
24547;SDS011;12713;51.624;4.924;2024-03-08T02:31:12;41.22;;;27.67;;
24547;SDS011;12713;51.624;4.924;2024-03-08T02:33:38;43.60;;;27.30;;
24547;SDS011;12713;51.624;4.924;2024-03-08T02:36:04;40.58;;;27.65;;
24547;SDS011;12713;51.624;4.924;2024-03-08T02:38:31;45.85;;;27.02;;
24547;SDS011;12713;51.624;4.924;2024-03-08T02:40:58;41.47;;;26.80;;
24547;SDS011;12713;51.624;4.924;2024-03-08T02:43:24;42.05;;;25.92;;
24547;SDS011;12713;51.624;4.924;2024-03-08T02:45:50;37.15;;;26.27;;
24547;SDS011;12713;51.624;4.924;2024-03-08T02:48:19;44.28;;;26.55;;
24547;SDS011;12713;51.624;4.924;2024-03-08T02:50:46;39.78;;;27.83;;
24547;SDS011;12713;51.624;4.924;2024-03-08T02:53:13;44.30;;;27.77;;
24547;SDS011;12713;51.624;4.924;2024-03-08T02:55:39;43.15;;;27.98;;
24547;SDS011;12713;51.624;4.924;2024-03-08T02:58:06;39.25;;;25.83;;
24547;SDS011;12713;51.624;4.924;2024-03-08T03:00:35;40.58;;;26.73;;
24547;SDS011;12713;51.624;4.924;2024-03-08T03:03:01;43.10;;;26.42;;
24547;SDS011;12713;51.624;4.924;2024-03-08T03:05:28;42.17;;;28.25;;
24547;SDS011;12713;51.624;4.924;2024-03-08T03:07:57;44.45;;;28.08;;
24547;SDS011;12713;51.624;4.924;2024-03-08T03:10:23;43.78;;;26.83;;
24547;SDS011;12713;51.624;4.924;2024-03-08T03:12:49;41.30;;;26.00;;
24547;SDS011;12713;51.624;4.924;2024-03-08T03:15:16;43.17;;;27.15;;
24547;SDS011;12713;51.624;4.924;2024-03-08T03:17:46;41.05;;;27.55;;
24547;SDS011;12713;51.624;4.924;2024-03-08T03:20:12;42.67;;;29.13;;
24547;SDS011;12713;51.624;4.924;2024-03-08T03:22:39;43.22;;;28.55;;
24547;SDS011;12713;51.624;4.924;2024-03-08T03:25:06;39.28;;;26.58;;
24547;SDS011;12713;51.624;4.924;2024-03-08T03:27:32;40.53;;;28.38;;
24547;SDS011;12713;51.624;4.924;2024-03-08T03:29:58;42.95;;;27.42;;
24547;SDS011;12713;51.624;4.924;2024-03-08T03:32:44;42.95;;;28.40;;
24547;SDS011;12713;51.624;4.924;2024-03-08T03:35:12;42.28;;;29.48;;
24547;SDS011;12713;51.624;4.924;2024-03-08T03:37:38;43.22;;;27.63;;
24547;SDS011;12713;51.624;4.924;2024-03-08T03:40:05;41.50;;;27.85;;
24547;SDS011;12713;51.624;4.924;2024-03-08T03:42:33;42.97;;;28.25;;
24547;SDS011;12713;51.624;4.924;2024-03-08T03:44:59;43.38;;;28.55;;
24547;SDS011;12713;51.624;4.924;2024-03-08T03:47:25;39.17;;;27.17;;
24547;SDS011;12713;51.624;4.924;2024-03-08T03:49:52;41.85;;;29.48;;
24547;SDS011;12713;51.624;4.924;2024-03-08T03:52:19;41.35;;;28.48;;
24547;SDS011;12713;51.624;4.924;2024-03-08T03:54:45;45.58;;;28.00;;
24547;SDS011;12713;51.624;4.924;2024-03-08T03:57:11;42.53;;;29.23;;
24547;SDS011;12713;51.624;4.924;2024-03-08T03:59:37;43.60;;;27.23;;
24547;SDS011;12713;51.624;4.924;2024-03-08T04:02:03;45.95;;;30.85;;
24547;SDS011;12713;51.624;4.924;2024-03-08T04:04:30;43.85;;;29.13;;
24547;SDS011;12713;51.624;4.924;2024-03-08T04:06:56;50.28;;;30.05;;
24547;SDS011;12713;51.624;4.924;2024-03-08T04:09:23;48.15;;;29.27;;
24547;SDS011;12713;51.624;4.924;2024-03-08T04:11:49;45.65;;;30.33;;
24547;SDS011;12713;51.624;4.924;2024-03-08T04:14:18;41.80;;;27.95;;
24547;SDS011;12713;51.624;4.924;2024-03-08T04:16:44;44.65;;;30.42;;
24547;SDS011;12713;51.624;4.924;2024-03-08T04:19:10;44.75;;;29.00;;
24547;SDS011;12713;51.624;4.924;2024-03-08T04:21:36;44.58;;;28.35;;
24547;SDS011;12713;51.624;4.924;2024-03-08T04:24:03;43.78;;;28.35;;
24547;SDS011;12713;51.624;4.924;2024-03-08T04:26:29;45.88;;;30.25;;
24547;SDS011;12713;51.624;4.924;2024-03-08T04:28:55;42.13;;;28.92;;
24547;SDS011;12713;51.624;4.924;2024-03-08T04:31:21;43.20;;;29.98;;
24547;SDS011;12713;51.624;4.924;2024-03-08T04:33:47;41.67;;;28.48;;
24547;SDS011;12713;51.624;4.924;2024-03-08T04:36:13;44.42;;;29.30;;
24547;SDS011;12713;51.624;4.924;2024-03-08T04:38:42;45.35;;;30.35;;
24547;SDS011;12713;51.624;4.924;2024-03-08T04:41:08;44.40;;;28.38;;
24547;SDS011;12713;51.624;4.924;2024-03-08T04:43:35;44.10;;;29.30;;
24547;SDS011;12713;51.624;4.924;2024-03-08T04:46:01;43.35;;;29.80;;
24547;SDS011;12713;51.624;4.924;2024-03-08T04:48:28;48.70;;;30.45;;
24547;SDS011;12713;51.624;4.924;2024-03-08T04:50:54;44.58;;;31.33;;
24547;SDS011;12713;51.624;4.924;2024-03-08T04:53:21;46.58;;;30.83;;
24547;SDS011;12713;51.624;4.924;2024-03-08T04:55:47;48.35;;;30.15;;
24547;SDS011;12713;51.624;4.924;2024-03-08T04:58:13;46.85;;;30.67;;
24547;SDS011;12713;51.624;4.924;2024-03-08T05:00:39;54.28;;;30.58;;
24547;SDS011;12713;51.624;4.924;2024-03-08T05:03:05;48.22;;;31.83;;
24547;SDS011;12713;51.624;4.924;2024-03-08T05:05:31;45.83;;;31.95;;
24547;SDS011;12713;51.624;4.924;2024-03-08T05:07:58;44.65;;;28.48;;
24547;SDS011;12713;51.624;4.924;2024-03-08T05:10:26;45.00;;;29.77;;
24547;SDS011;12713;51.624;4.924;2024-03-08T05:12:52;45.50;;;29.10;;
24547;SDS011;12713;51.624;4.924;2024-03-08T05:15:18;46.30;;;30.73;;
24547;SDS011;12713;51.624;4.924;2024-03-08T05:17:45;46.30;;;30.25;;
24547;SDS011;12713;51.624;4.924;2024-03-08T05:20:11;48.13;;;32.13;;
24547;SDS011;12713;51.624;4.924;2024-03-08T05:22:38;46.92;;;29.90;;
24547;SDS011;12713;51.624;4.924;2024-03-08T05:25:07;48.20;;;30.17;;
24547;SDS011;12713;51.624;4.924;2024-03-08T05:27:34;44.45;;;31.45;;
24547;SDS011;12713;51.624;4.924;2024-03-08T05:30:02;48.88;;;31.35;;
24547;SDS011;12713;51.624;4.924;2024-03-08T05:32:29;46.33;;;30.30;;
24547;SDS011;12713;51.624;4.924;2024-03-08T05:34:55;49.60;;;30.80;;
24547;SDS011;12713;51.624;4.924;2024-03-08T05:37:21;46.55;;;30.23;;
24547;SDS011;12713;51.624;4.924;2024-03-08T05:39:47;45.95;;;31.83;;
24547;SDS011;12713;51.624;4.924;2024-03-08T05:42:13;43.55;;;29.80;;
24547;SDS011;12713;51.624;4.924;2024-03-08T05:44:39;41.85;;;29.40;;
24547;SDS011;12713;51.624;4.924;2024-03-08T05:47:05;54.50;;;32.10;;
24547;SDS011;12713;51.624;4.924;2024-03-08T05:49:32;48.25;;;31.92;;
24547;SDS011;12713;51.624;4.924;2024-03-08T05:51:59;47.70;;;30.67;;
24547;SDS011;12713;51.624;4.924;2024-03-08T05:54:25;47.88;;;31.75;;
24547;SDS011;12713;51.624;4.924;2024-03-08T05:56:52;46.72;;;32.00;;
24547;SDS011;12713;51.624;4.924;2024-03-08T05:59:19;48.35;;;31.83;;
24547;SDS011;12713;51.624;4.924;2024-03-08T06:01:45;48.70;;;31.75;;
24547;SDS011;12713;51.624;4.924;2024-03-08T06:04:12;49.53;;;31.83;;
24547;SDS011;12713;51.624;4.924;2024-03-08T06:06:39;46.95;;;31.83;;
24547;SDS011;12713;51.624;4.924;2024-03-08T06:09:05;50.78;;;32.00;;
24547;SDS011;12713;51.624;4.924;2024-03-08T06:11:36;54.00;;;32.80;;
24547;SDS011;12713;51.624;4.924;2024-03-08T06:14:03;45.15;;;31.25;;
24547;SDS011;12713;51.624;4.924;2024-03-08T06:16:29;51.95;;;31.98;;
24547;SDS011;12713;51.624;4.924;2024-03-08T06:18:58;55.78;;;33.03;;
24547;SDS011;12713;51.624;4.924;2024-03-08T06:21:27;45.65;;;30.92;;
24547;SDS011;12713;51.624;4.924;2024-03-08T06:23:53;49.40;;;32.42;;
24547;SDS011;12713;51.624;4.924;2024-03-08T06:26:20;52.65;;;32.83;;
24547;SDS011;12713;51.624;4.924;2024-03-08T06:28:47;48.75;;;31.70;;
24547;SDS011;12713;51.624;4.924;2024-03-08T06:31:13;52.95;;;33.28;;
24547;SDS011;12713;51.624;4.924;2024-03-08T06:33:40;49.50;;;32.60;;
24547;SDS011;12713;51.624;4.924;2024-03-08T06:36:06;55.22;;;33.55;;
24547;SDS011;12713;51.624;4.924;2024-03-08T06:38:32;50.97;;;32.20;;
24547;SDS011;12713;51.624;4.924;2024-03-08T06:40:58;48.28;;;33.05;;
24547;SDS011;12713;51.624;4.924;2024-03-08T06:43:26;51.15;;;32.78;;
24547;SDS011;12713;51.624;4.924;2024-03-08T06:45:58;51.75;;;34.25;;
24547;SDS011;12713;51.624;4.924;2024-03-08T06:48:24;48.60;;;31.83;;
24547;SDS011;12713;51.624;4.924;2024-03-08T06:50:50;50.33;;;33.05;;
24547;SDS011;12713;51.624;4.924;2024-03-08T06:53:16;51.45;;;32.85;;
24547;SDS011;12713;51.624;4.924;2024-03-08T06:55:44;50.35;;;34.60;;
24547;SDS011;12713;51.624;4.924;2024-03-08T06:58:11;52.85;;;32.70;;
24547;SDS011;12713;51.624;4.924;2024-03-08T07:00:37;52.58;;;34.45;;
24547;SDS011;12713;51.624;4.924;2024-03-08T07:03:03;51.28;;;32.45;;
24547;SDS011;12713;51.624;4.924;2024-03-08T07:05:31;47.58;;;32.17;;
24547;SDS011;12713;51.624;4.924;2024-03-08T07:07:57;47.85;;;31.95;;
24547;SDS011;12713;51.624;4.924;2024-03-08T07:10:24;51.00;;;30.92;;
24547;SDS011;12713;51.624;4.924;2024-03-08T07:12:50;55.20;;;33.90;;
24547;SDS011;12713;51.624;4.924;2024-03-08T07:15:18;50.10;;;31.95;;
24547;SDS011;12713;51.624;4.924;2024-03-08T07:17:44;49.08;;;32.08;;
24547;SDS011;12713;51.624;4.924;2024-03-08T07:20:11;48.20;;;32.28;;
24547;SDS011;12713;51.624;4.924;2024-03-08T07:22:38;53.63;;;33.17;;
24547;SDS011;12713;51.624;4.924;2024-03-08T07:25:05;45.92;;;31.30;;
24547;SDS011;12713;51.624;4.924;2024-03-08T07:27:52;47.78;;;31.83;;
24547;SDS011;12713;51.624;4.924;2024-03-08T07:30:25;45.20;;;30.73;;
24547;SDS011;12713;51.624;4.924;2024-03-08T07:33:10;45.05;;;30.50;;
24547;SDS011;12713;51.624;4.924;2024-03-08T07:35:37;49.58;;;31.35;;
24547;SDS011;12713;51.624;4.924;2024-03-08T07:38:04;45.33;;;30.02;;
24547;SDS011;12713;51.624;4.924;2024-03-08T07:40:31;50.40;;;30.02;;
24547;SDS011;12713;51.624;4.924;2024-03-08T07:42:57;46.47;;;31.73;;
24547;SDS011;12713;51.624;4.924;2024-03-08T07:45:23;50.22;;;29.17;;
24547;SDS011;12713;51.624;4.924;2024-03-08T07:47:50;43.30;;;28.52;;
24547;SDS011;12713;51.624;4.924;2024-03-08T07:50:16;47.40;;;30.85;;
24547;SDS011;12713;51.624;4.924;2024-03-08T07:52:43;43.88;;;28.73;;
24547;SDS011;12713;51.624;4.924;2024-03-08T07:55:09;42.58;;;28.60;;
24547;SDS011;12713;51.624;4.924;2024-03-08T07:57:35;42.90;;;28.63;;
24547;SDS011;12713;51.624;4.924;2024-03-08T08:00:03;47.35;;;30.15;;
24547;SDS011;12713;51.624;4.924;2024-03-08T08:02:32;43.67;;;29.52;;
24547;SDS011;12713;51.624;4.924;2024-03-08T08:04:59;40.92;;;27.40;;
24547;SDS011;12713;51.624;4.924;2024-03-08T08:07:25;44.60;;;27.30;;
24547;SDS011;12713;51.624;4.924;2024-03-08T08:09:52;43.85;;;28.77;;
24547;SDS011;12713;51.624;4.924;2024-03-08T08:12:18;40.65;;;27.73;;
24547;SDS011;12713;51.624;4.924;2024-03-08T08:14:45;37.75;;;27.15;;
24547;SDS011;12713;51.624;4.924;2024-03-08T08:17:11;40.13;;;27.08;;
24547;SDS011;12713;51.624;4.924;2024-03-08T08:19:37;42.08;;;26.65;;
24547;SDS011;12713;51.624;4.924;2024-03-08T08:22:04;43.17;;;27.63;;
24547;SDS011;12713;51.624;4.924;2024-03-08T08:24:30;44.50;;;28.95;;
24547;SDS011;12713;51.624;4.924;2024-03-08T08:26:56;40.10;;;27.98;;
24547;SDS011;12713;51.624;4.924;2024-03-08T08:29:22;43.58;;;27.73;;
24547;SDS011;12713;51.624;4.924;2024-03-08T08:31:48;39.55;;;26.77;;
24547;SDS011;12713;51.624;4.924;2024-03-08T08:34:15;42.03;;;26.60;;
24547;SDS011;12713;51.624;4.924;2024-03-08T08:36:44;40.38;;;25.60;;
24547;SDS011;12713;51.624;4.924;2024-03-08T08:39:10;39.65;;;26.15;;
24547;SDS011;12713;51.624;4.924;2024-03-08T08:41:39;36.20;;;24.60;;
24547;SDS011;12713;51.624;4.924;2024-03-08T08:44:06;38.13;;;23.65;;
24547;SDS011;12713;51.624;4.924;2024-03-08T08:46:35;39.67;;;25.48;;
24547;SDS011;12713;51.624;4.924;2024-03-08T08:49:03;38.58;;;25.90;;
24547;SDS011;12713;51.624;4.924;2024-03-08T08:51:29;37.22;;;24.73;;
24547;SDS011;12713;51.624;4.924;2024-03-08T08:53:56;37.35;;;25.08;;
24547;SDS011;12713;51.624;4.924;2024-03-08T08:56:22;39.30;;;25.55;;
24547;SDS011;12713;51.624;4.924;2024-03-08T08:58:48;38.47;;;24.55;;
24547;SDS011;12713;51.624;4.924;2024-03-08T09:01:14;39.13;;;26.45;;
24547;SDS011;12713;51.624;4.924;2024-03-08T09:03:43;38.55;;;25.27;;
24547;SDS011;12713;51.624;4.924;2024-03-08T09:06:12;39.50;;;24.40;;
24547;SDS011;12713;51.624;4.924;2024-03-08T09:08:38;38.33;;;25.65;;
24547;SDS011;12713;51.624;4.924;2024-03-08T09:11:05;40.67;;;24.30;;
24547;SDS011;12713;51.624;4.924;2024-03-08T09:13:31;35.45;;;23.98;;
24547;SDS011;12713;51.624;4.924;2024-03-08T09:15:58;39.60;;;24.25;;
24547;SDS011;12713;51.624;4.924;2024-03-08T09:18:24;36.20;;;23.67;;
24547;SDS011;12713;51.624;4.924;2024-03-08T09:20:51;39.13;;;24.73;;
24547;SDS011;12713;51.624;4.924;2024-03-08T09:23:21;33.95;;;24.08;;
24547;SDS011;12713;51.624;4.924;2024-03-08T09:25:47;36.35;;;23.40;;
24547;SDS011;12713;51.624;4.924;2024-03-08T09:28:14;36.47;;;23.30;;
24547;SDS011;12713;51.624;4.924;2024-03-08T09:30:41;31.25;;;21.67;;
24547;SDS011;12713;51.624;4.924;2024-03-08T09:33:07;36.92;;;23.98;;
24547;SDS011;12713;51.624;4.924;2024-03-08T09:35:34;31.67;;;22.13;;
24547;SDS011;12713;51.624;4.924;2024-03-08T09:38:01;33.45;;;23.30;;
24547;SDS011;12713;51.624;4.924;2024-03-08T09:40:28;33.90;;;22.85;;
24547;SDS011;12713;51.624;4.924;2024-03-08T09:42:54;31.38;;;21.58;;
24547;SDS011;12713;51.624;4.924;2024-03-08T09:45:22;29.80;;;21.48;;
24547;SDS011;12713;51.624;4.924;2024-03-08T09:47:49;32.80;;;21.70;;
24547;SDS011;12713;51.624;4.924;2024-03-08T09:50:16;33.95;;;22.08;;
24547;SDS011;12713;51.624;4.924;2024-03-08T09:52:43;31.08;;;21.88;;
24547;SDS011;12713;51.624;4.924;2024-03-08T09:55:12;33.97;;;22.65;;
24547;SDS011;12713;51.624;4.924;2024-03-08T09:57:39;33.70;;;22.73;;
24547;SDS011;12713;51.624;4.924;2024-03-08T10:00:05;31.30;;;21.80;;
24547;SDS011;12713;51.624;4.924;2024-03-08T10:02:50;32.60;;;21.13;;
24547;SDS011;12713;51.624;4.924;2024-03-08T10:05:18;37.10;;;23.08;;
24547;SDS011;12713;51.624;4.924;2024-03-08T10:07:47;29.85;;;20.13;;
24547;SDS011;12713;51.624;4.924;2024-03-08T10:10:13;31.52;;;21.67;;
24547;SDS011;12713;51.624;4.924;2024-03-08T10:12:39;27.92;;;20.77;;
24547;SDS011;12713;51.624;4.924;2024-03-08T10:15:06;31.23;;;22.40;;
24547;SDS011;12713;51.624;4.924;2024-03-08T10:17:33;29.35;;;21.20;;
24547;SDS011;12713;51.624;4.924;2024-03-08T10:19:59;28.95;;;20.48;;
24547;SDS011;12713;51.624;4.924;2024-03-08T10:22:26;29.25;;;20.00;;
24547;SDS011;12713;51.624;4.924;2024-03-08T10:24:54;29.38;;;20.50;;
24547;SDS011;12713;51.624;4.924;2024-03-08T10:27:20;31.30;;;20.90;;
24547;SDS011;12713;51.624;4.924;2024-03-08T10:29:49;31.83;;;20.77;;
24547;SDS011;12713;51.624;4.924;2024-03-08T10:32:17;27.70;;;19.73;;
24547;SDS011;12713;51.624;4.924;2024-03-08T10:34:43;31.83;;;20.17;;
24547;SDS011;12713;51.624;4.924;2024-03-08T10:37:12;27.00;;;19.25;;
24547;SDS011;12713;51.624;4.924;2024-03-08T10:39:42;28.17;;;19.15;;
24547;SDS011;12713;51.624;4.924;2024-03-08T10:42:13;24.98;;;19.17;;
24547;SDS011;12713;51.624;4.924;2024-03-08T10:45:05;31.77;;;19.10;;
24547;SDS011;12713;51.624;4.924;2024-03-08T10:47:34;29.38;;;19.13;;
24547;SDS011;12713;51.624;4.924;2024-03-08T10:52:29;25.23;;;18.45;;
24547;SDS011;12713;51.624;4.924;2024-03-08T10:54:56;27.05;;;17.83;;
24547;SDS011;12713;51.624;4.924;2024-03-08T10:57:24;23.60;;;17.98;;
24547;SDS011;12713;51.624;4.924;2024-03-08T10:59:52;30.77;;;18.42;;
24547;SDS011;12713;51.624;4.924;2024-03-08T11:02:18;26.20;;;17.85;;
24547;SDS011;12713;51.624;4.924;2024-03-08T11:04:48;25.13;;;17.17;;
24547;SDS011;12713;51.624;4.924;2024-03-08T11:07:14;25.35;;;17.45;;
24547;SDS011;12713;51.624;4.924;2024-03-08T11:09:45;26.17;;;17.25;;
24547;SDS011;12713;51.624;4.924;2024-03-08T11:12:26;24.45;;;17.38;;
24547;SDS011;12713;51.624;4.924;2024-03-08T11:15:00;27.35;;;17.45;;
24547;SDS011;12713;51.624;4.924;2024-03-08T11:19:59;24.67;;;17.10;;
24547;SDS011;12713;51.624;4.924;2024-03-08T11:22:31;28.08;;;17.00;;
24547;SDS011;12713;51.624;4.924;2024-03-08T11:24:58;24.45;;;17.73;;
24547;SDS011;12713;51.624;4.924;2024-03-08T11:27:29;24.45;;;17.10;;
24547;SDS011;12713;51.624;4.924;2024-03-08T11:30:05;23.30;;;16.52;;
24547;SDS011;12713;51.624;4.924;2024-03-08T11:32:36;25.10;;;17.02;;
24547;SDS011;12713;51.624;4.924;2024-03-08T11:35:06;24.15;;;15.52;;
24547;SDS011;12713;51.624;4.924;2024-03-08T11:37:34;25.40;;;17.90;;
24547;SDS011;12713;51.624;4.924;2024-03-08T11:40:01;24.48;;;18.17;;
24547;SDS011;12713;51.624;4.924;2024-03-08T11:42:29;23.90;;;16.90;;
24547;SDS011;12713;51.624;4.924;2024-03-08T11:44:55;24.75;;;16.63;;
24547;SDS011;12713;51.624;4.924;2024-03-08T11:47:23;22.85;;;17.25;;
24547;SDS011;12713;51.624;4.924;2024-03-08T11:49:51;23.95;;;17.00;;
24547;SDS011;12713;51.624;4.924;2024-03-08T11:52:18;24.90;;;17.48;;
24547;SDS011;12713;51.624;4.924;2024-03-08T11:54:48;23.48;;;16.40;;
24547;SDS011;12713;51.624;4.924;2024-03-08T11:57:21;21.85;;;16.30;;
24547;SDS011;12713;51.624;4.924;2024-03-08T11:59:52;22.15;;;16.73;;
24547;SDS011;12713;51.624;4.924;2024-03-08T12:02:18;21.95;;;16.02;;
24547;SDS011;12713;51.624;4.924;2024-03-08T12:04:50;21.42;;;15.40;;
24547;SDS011;12713;51.624;4.924;2024-03-08T12:07:21;23.70;;;16.27;;
24547;SDS011;12713;51.624;4.924;2024-03-08T12:12:37;28.40;;;16.95;;
24547;SDS011;12713;51.624;4.924;2024-03-08T12:15:03;23.33;;;17.38;;
24547;SDS011;12713;51.624;4.924;2024-03-08T12:17:29;23.85;;;17.52;;
24547;SDS011;12713;51.624;4.924;2024-03-08T12:19:55;19.67;;;15.95;;
24547;SDS011;12713;51.624;4.924;2024-03-08T12:22:24;20.35;;;15.20;;
24547;SDS011;12713;51.624;4.924;2024-03-08T12:25:04;18.58;;;13.90;;
24547;SDS011;12713;51.624;4.924;2024-03-08T12:27:31;18.92;;;13.00;;
24547;SDS011;12713;51.624;4.924;2024-03-08T12:29:57;20.25;;;14.25;;
24547;SDS011;12713;51.624;4.924;2024-03-08T12:32:23;18.23;;;13.07;;
24547;SDS011;12713;51.624;4.924;2024-03-08T12:34:52;20.92;;;13.95;;
24547;SDS011;12713;51.624;4.924;2024-03-08T12:37:18;18.90;;;14.27;;
24547;SDS011;12713;51.624;4.924;2024-03-08T12:39:45;18.75;;;12.93;;
24547;SDS011;12713;51.624;4.924;2024-03-08T12:42:11;24.67;;;14.48;;
24547;SDS011;12713;51.624;4.924;2024-03-08T12:44:37;19.05;;;13.63;;
24547;SDS011;12713;51.624;4.924;2024-03-08T12:47:08;20.92;;;13.48;;
24547;SDS011;12713;51.624;4.924;2024-03-08T12:49:34;22.15;;;14.13;;
24547;SDS011;12713;51.624;4.924;2024-03-08T12:52:00;18.70;;;13.18;;
24547;SDS011;12713;51.624;4.924;2024-03-08T12:54:26;17.42;;;12.90;;
24547;SDS011;12713;51.624;4.924;2024-03-08T12:56:53;19.95;;;13.43;;
24547;SDS011;12713;51.624;4.924;2024-03-08T12:59:19;22.23;;;13.98;;
24547;SDS011;12713;51.624;4.924;2024-03-08T13:01:46;19.73;;;13.70;;
24547;SDS011;12713;51.624;4.924;2024-03-08T13:04:12;19.90;;;13.27;;
24547;SDS011;12713;51.624;4.924;2024-03-08T13:06:40;21.73;;;12.98;;
24547;SDS011;12713;51.624;4.924;2024-03-08T13:09:06;17.80;;;13.48;;
24547;SDS011;12713;51.624;4.924;2024-03-08T13:11:32;24.10;;;14.48;;
24547;SDS011;12713;51.624;4.924;2024-03-08T13:14:05;20.67;;;13.63;;
24547;SDS011;12713;51.624;4.924;2024-03-08T13:16:31;19.95;;;14.43;;
24547;SDS011;12713;51.624;4.924;2024-03-08T13:18:58;18.58;;;13.68;;
24547;SDS011;12713;51.624;4.924;2024-03-08T13:21:24;19.10;;;13.55;;
24547;SDS011;12713;51.624;4.924;2024-03-08T13:23:50;20.08;;;14.75;;
24547;SDS011;12713;51.624;4.924;2024-03-08T13:26:18;20.65;;;13.82;;
24547;SDS011;12713;51.624;4.924;2024-03-08T13:28:48;18.52;;;13.52;;
24547;SDS011;12713;51.624;4.924;2024-03-08T13:31:18;20.00;;;14.35;;
24547;SDS011;12713;51.624;4.924;2024-03-08T13:33:44;19.60;;;13.40;;
24547;SDS011;12713;51.624;4.924;2024-03-08T13:36:12;19.48;;;13.55;;
24547;SDS011;12713;51.624;4.924;2024-03-08T13:38:45;18.33;;;13.75;;
24547;SDS011;12713;51.624;4.924;2024-03-08T13:41:11;19.50;;;13.45;;
24547;SDS011;12713;51.624;4.924;2024-03-08T13:43:40;18.77;;;12.68;;
24547;SDS011;12713;51.624;4.924;2024-03-08T13:46:06;22.17;;;14.05;;
24547;SDS011;12713;51.624;4.924;2024-03-08T13:48:33;17.25;;;11.88;;
24547;SDS011;12713;51.624;4.924;2024-03-08T13:50:59;18.90;;;12.27;;
24547;SDS011;12713;51.624;4.924;2024-03-08T13:53:25;18.73;;;12.30;;
24547;SDS011;12713;51.624;4.924;2024-03-08T13:55:51;20.90;;;12.45;;
24547;SDS011;12713;51.624;4.924;2024-03-08T13:58:17;18.83;;;12.27;;
24547;SDS011;12713;51.624;4.924;2024-03-08T14:00:45;20.10;;;12.63;;
24547;SDS011;12713;51.624;4.924;2024-03-08T14:03:13;18.67;;;13.15;;
24547;SDS011;12713;51.624;4.924;2024-03-08T14:05:39;20.42;;;13.52;;
24547;SDS011;12713;51.624;4.924;2024-03-08T14:08:06;16.10;;;12.80;;
24547;SDS011;12713;51.624;4.924;2024-03-08T14:10:33;16.55;;;12.43;;
24547;SDS011;12713;51.624;4.924;2024-03-08T14:12:59;20.95;;;13.32;;
24547;SDS011;12713;51.624;4.924;2024-03-08T14:15:29;19.98;;;13.30;;
24547;SDS011;12713;51.624;4.924;2024-03-08T14:17:55;19.23;;;12.60;;
24547;SDS011;12713;51.624;4.924;2024-03-08T14:20:22;16.17;;;12.30;;
24547;SDS011;12713;51.624;4.924;2024-03-08T14:22:52;15.60;;;12.15;;
24547;SDS011;12713;51.624;4.924;2024-03-08T14:25:18;19.30;;;12.23;;
24547;SDS011;12713;51.624;4.924;2024-03-08T14:27:45;19.67;;;12.80;;
24547;SDS011;12713;51.624;4.924;2024-03-08T14:30:11;18.90;;;13.20;;